Time;durP1;ratioP1;P1;durP2;ratioP2;P2;SDS_P1;SDS_P2;PMS_P1;PMS_P2;Temp;Humidity;BMP_temperature;BMP_pressure;BME280_temperature;BME280_humidity;BME280_pressure;Samples;Min_cycle;Max_cycle;Signal;HPM_P1;HPM_P2
2021/08/02 00:01:24;;;;;;;4.75;2.60;;;;;;;14.00;86.54;101322.78;5064332;28;20059;-35
2021/08/02 00:04:05;;;;;;;5.05;2.47;;;;;;;13.93;86.18;101321.28;5116349;28;20027;-36
2021/08/02 00:06:48;;;;;;;5.88;2.53;;;;;;;13.89;86.73;101316.31;5116640;28;20030;-35
2021/08/02 00:09:16;;;;;;;8.82;3.22;;;;;;;13.87;86.35;101320.34;5115940;28;20015;-35
2021/08/02 00:11:52;;;;;;;6.28;2.80;;;;;;;13.89;87.39;101315.50;5116614;28;20031;-36
2021/08/02 00:14:21;;;;;;;5.88;2.90;;;;;;;13.89;86.80;101318.22;5116301;28;20114;-35
2021/08/02 00:16:46;;;;;;;6.40;2.78;;;;;;;13.88;87.38;101311.94;5115997;28;20041;-35
2021/08/02 00:19:12;;;;;;;7.97;2.95;;;;;;;13.88;87.87;101316.56;5115611;28;20040;-36
2021/08/02 00:21:37;;;;;;;6.97;2.95;;;;;;;13.91;87.25;101316.09;5115746;28;20051;-36
2021/08/02 00:24:03;;;;;;;5.93;2.88;;;;;;;13.84;87.29;101301.78;5115462;28;20026;-36
2021/08/02 00:26:29;;;;;;;8.30;3.10;;;;;;;13.88;86.88;101314.66;5115931;28;20444;-36
2021/08/02 00:28:57;;;;;;;10.05;3.10;;;;;;;13.90;86.74;101323.41;5113987;28;20020;-35
2021/08/02 00:31:23;;;;;;;7.38;3.00;;;;;;;13.91;88.34;101324.25;5116040;28;20065;-36
2021/08/02 00:33:48;;;;;;;7.80;3.33;;;;;;;13.89;87.92;101326.38;5115537;28;20420;-36
2021/08/02 00:36:39;;;;;;;6.90;2.93;;;;;;;13.75;87.91;101303.25;5115513;28;20019;-36
2021/08/02 00:39:43;;;;;;;7.45;2.67;;;;;;;13.94;88.20;101328.34;5115559;28;20253;-36
2021/08/02 00:42:35;;;;;;;6.13;2.90;;;;;;;13.90;87.72;101322.56;5032471;28;20045;-35
2021/08/02 00:45:06;;;;;;;4.75;2.33;;;;;;;13.96;88.36;101329.78;5032302;28;20457;-35
2021/08/02 00:47:40;;;;;;;8.75;3.13;;;;;;;13.87;86.89;101333.94;5032359;28;20029;-36
2021/08/02 00:50:12;;;;;;;3.78;2.92;;;;;;;13.81;87.83;101324.00;5033140;28;20025;-35
2021/08/02 00:52:46;;;;;;;5.38;3.00;;;;;;;13.79;87.95;101318.81;5032798;28;20068;-35
2021/08/02 00:55:13;;;;;;;6.43;2.90;;;;;;;13.82;88.04;101333.84;5032439;28;20025;-36
2021/08/02 00:57:41;;;;;;;5.30;2.85;;;;;;;13.81;87.56;101340.31;5032144;28;20105;-36
2021/08/02 01:00:10;;;;;;;7.50;3.08;;;;;;;13.82;87.91;101337.38;5032118;28;20044;-35
2021/08/02 01:02:47;;;;;;;6.78;3.35;;;;;;;13.80;88.12;101331.34;5032662;28;20025;-36
2021/08/02 01:05:14;;;;;;;4.72;2.92;;;;;;;13.75;88.01;101325.81;5032057;28;20044;-36
2021/08/02 01:07:45;;;;;;;5.03;2.90;;;;;;;13.75;88.59;101333.97;5032479;28;20037;-36
2021/08/02 01:10:12;;;;;;;6.00;2.95;;;;;;;13.79;88.52;101334.31;5032226;28;20087;-36
2021/08/02 01:12:41;;;;;;;8.93;3.45;;;;;;;13.68;88.48;101322.41;5031907;28;20452;-36
2021/08/02 01:15:07;;;;;;;8.82;3.72;;;;;;;13.84;89.18;101340.69;5031736;28;20032;-35
2021/08/02 01:17:33;;;;;;;;;;;;;;;13.96;87.54;101337.94;5040114;28;20082;-36
2021/08/02 01:20:02;;;;;;;6.10;3.28;;;;;;;13.83;88.54;101332.78;5114985;28;19919;-36
2021/08/02 01:22:29;;;;;;;5.85;3.20;;;;;;;13.78;89.28;101338.94;5114629;28;20115;-36
2021/08/02 01:24:55;;;;;;;6.18;3.55;;;;;;;13.77;88.89;101317.44;5114733;28;20028;-35
2021/08/02 01:27:46;;;;;;;5.95;3.33;;;;;;;13.87;88.73;101328.50;5115388;28;20028;-36
2021/08/02 01:30:21;;;;;;;5.95;3.00;;;;;;;13.57;88.22;101285.22;5115220;28;20050;-35
2021/08/02 01:32:48;;;;;;;6.40;3.33;;;;;;;13.74;88.41;101313.28;5114546;28;20024;-36
2021/08/02 01:35:15;;;;;;;7.28;3.40;;;;;;;13.83;88.50;101327.34;5113931;28;20424;-35
2021/08/02 01:37:44;;;;;;;8.55;3.47;;;;;;;13.78;88.18;101324.50;5114210;28;20042;-35
2021/08/02 01:40:10;;;;;;;7.35;3.83;;;;;;;13.72;88.30;101325.47;5114181;28;20020;-36
2021/08/02 01:42:39;;;;;;;5.50;3.38;;;;;;;13.81;88.31;101333.03;5114349;28;20023;-35
2021/08/02 01:45:06;;;;;;;7.13;3.72;;;;;;;13.78;88.94;101328.06;5114083;28;20019;-36
2021/08/02 01:47:41;;;;;;;6.78;4.10;;;;;;;13.82;89.11;101329.22;5113997;28;20020;-36
2021/08/02 01:50:28;;;;;;;4.93;4.10;;;;;;;13.81;88.93;101324.00;5114553;28;20042;-36
2021/08/02 01:53:10;;;;;;;7.05;3.40;;;;;;;13.88;88.79;101330.97;5114648;28;20067;-35
2021/08/02 01:55:36;;;;;;;7.50;3.72;;;;;;;13.91;89.56;101338.66;5114188;28;20043;-36
2021/08/02 01:58:06;;;;;;;6.35;4.35;;;;;;;13.97;89.08;101341.47;5113669;28;20027;-35
2021/08/02 02:00:36;;;;;;;6.28;3.97;;;;;;;13.81;89.44;101321.28;5113425;28;20176;-35
2021/08/02 02:03:10;;;;;;;6.57;3.45;;;;;;;13.87;89.58;101333.94;5114105;28;20039;-36
2021/08/02 02:05:37;;;;;;;5.95;3.78;;;;;;;13.79;89.73;101323.44;5113572;28;20020;-36
2021/08/02 02:08:18;;;;;;;6.30;3.90;;;;;;;13.93;90.00;101334.88;5113785;28;20152;-36
2021/08/02 02:10:51;;;;;;;7.35;3.90;;;;;;;13.91;90.23;101332.41;5113868;28;20024;-36
2021/08/02 02:13:21;;;;;;;8.02;4.32;;;;;;;13.93;89.92;101327.53;5114522;28;20019;-36
2021/08/02 02:15:52;;;;;;;8.10;3.83;;;;;;;13.98;90.12;101330.34;5113689;28;20091;-36
2021/08/02 02:18:19;;;;;;;6.43;3.85;;;;;;;13.80;89.74;101322.38;5113597;27;20046;-36
2021/08/02 02:20:47;;;;;;;5.75;3.55;;;;;;;13.83;89.45;101332.78;5114468;28;20080;-36
2021/08/02 02:23:13;;;;;;;6.50;3.60;;;;;;;13.82;89.26;101328.41;5113974;28;20027;-36
2021/08/02 02:25:40;;;;;;;;;;;;;;;14.02;88.19;101336.97;5114117;28;20024;-36
2021/08/02 02:28:06;;;;;;;10.05;4.22;;;;;;;13.95;88.99;101324.56;5113703;28;19907;-36
2021/08/02 02:30:31;;;;;;;10.77;3.47;;;;;;;13.92;90.11;101334.06;5114190;28;20031;-36
2021/08/02 02:32:57;;;;;;;9.00;3.65;;;;;;;13.87;90.59;101328.50;5113281;28;20349;-35
2021/08/02 02:35:25;;;;;;;6.22;3.33;;;;;;;13.78;89.93;101310.94;5113693;28;20020;-35
2021/08/02 02:37:52;;;;;;;5.80;3.78;;;;;;;13.85;90.23;101330.63;5113542;28;20108;-36
2021/08/02 02:40:18;;;;;;;9.60;3.80;;;;;;;13.85;90.41;101325.19;5114177;28;20024;-36
2021/08/02 02:42:45;;;;;;;7.90;4.20;;;;;;;13.86;90.27;101333.13;5113805;28;20039;-35
2021/08/02 02:45:11;;;;;;;5.50;3.55;;;;;;;13.87;89.80;101329.34;5113301;28;20020;-35
2021/08/02 02:47:38;;;;;;;7.78;4.18;;;;;;;13.80;90.12;101311.50;5113812;28;20064;-36
2021/08/02 02:50:05;;;;;;;7.85;3.67;;;;;;;13.87;90.01;101329.34;5113420;28;20428;-36
2021/08/02 02:52:31;;;;;;;8.25;3.70;;;;;;;13.82;90.56;101321.06;5112983;28;20031;-36
2021/08/02 02:54:58;;;;;;;8.07;3.30;;;;;;;13.87;90.38;101317.63;5113292;28;20483;-36
2021/08/02 02:57:24;;;;;;;8.07;4.13;;;;;;;13.84;89.94;101327.09;5114082;28;20023;-35
2021/08/02 02:59:49;;;;;;;7.83;4.00;;;;;;;13.79;90.21;101315.28;5113371;28;20027;-36
2021/08/02 03:02:17;;;;;;;9.70;4.10;;;;;;;13.80;90.55;101333.25;5113362;28;20694;-36
2021/08/02 03:04:45;;;;;;;7.00;4.07;;;;;;;13.77;90.27;101325.59;5114116;28;20027;-36
2021/08/02 03:07:13;;;;;;;10.48;4.32;;;;;;;13.84;90.63;101328.97;5113887;28;20085;-35
2021/08/02 03:09:41;;;;;;;9.00;3.53;;;;;;;13.88;90.85;101338.31;5116694;28;20019;-36
2021/08/02 03:12:07;;;;;;;5.63;4.28;;;;;;;13.90;89.96;101338.88;5117858;28;20024;-36
2021/08/02 03:14:34;;;;;;;9.52;4.40;;;;;;;13.95;90.04;101347.13;5117056;28;20069;-36
2021/08/02 03:16:59;;;;;;;5.03;3.80;;;;;;;13.87;89.78;101336.66;5117761;28;20019;-36
2021/08/02 03:19:25;;;;;;;6.85;3.65;;;;;;;13.93;89.73;101343.84;5117357;28;20082;-35
2021/08/02 03:21:50;;;;;;;7.70;3.60;;;;;;;13.90;89.84;101347.88;5117196;28;20031;-35
2021/08/02 03:24:27;;;;;;;6.90;3.20;;;;;;;13.93;90.36;101345.75;5117529;28;20027;-36
2021/08/02 03:27:16;;;;;;;6.35;3.88;;;;;;;13.94;90.02;101341.97;5116744;28;20676;-36
2021/08/02 03:29:45;;;;;;;7.55;3.15;;;;;;;13.89;90.07;101340.78;5117189;28;20074;-36
2021/08/02 03:32:17;;;;;;;9.50;4.32;;;;;;;13.84;90.35;101340.69;5116502;28;20040;-36
2021/08/02 03:34:46;;;;;;;5.53;3.60;;;;;;;13.88;90.18;101351.91;5116848;28;20024;-36
2021/08/02 03:37:15;;;;;;;9.77;3.97;;;;;;;13.90;91.03;101347.03;5116600;28;20443;-36
2021/08/02 03:39:42;;;;;;;6.60;3.65;;;;;;;13.89;90.42;101345.41;5117014;28;20437;-35
2021/08/02 03:42:09;;;;;;;4.78;3.50;;;;;;;13.89;90.21;101348.13;5116834;28;20110;-36
2021/08/02 03:44:35;;;;;;;12.07;3.83;;;;;;;13.69;90.65;101321.34;5116742;27;20027;-35
2021/08/02 03:47:01;;;;;;;9.48;4.18;;;;;;;13.83;90.57;101349.09;5116754;28;20103;-35
2021/08/02 03:49:27;;;;;;;5.22;3.55;;;;;;;13.81;90.48;101343.91;5116722;28;20027;-35
2021/08/02 03:51:57;;;;;;;11.15;3.65;;;;;;;13.84;90.57;101351.56;5117118;28;20027;-36
2021/08/02 03:54:26;;;;;;;7.28;3.78;;;;;;;13.78;90.67;101343.53;5116652;28;20019;-36
2021/08/02 03:56:52;;;;;;;7.93;3.80;;;;;;;13.82;91.00;101363.75;5116795;27;20027;-35
2021/08/02 03:59:18;;;;;;;6.85;3.53;;;;;;;13.84;90.69;101350.72;5116200;28;20100;-36
2021/08/02 04:01:44;;;;;;;5.50;3.43;;;;;;;13.93;90.44;101367.50;5116963;28;20424;-36
2021/08/02 04:04:10;;;;;;;7.65;3.70;;;;;;;13.91;90.11;101365.84;5116952;28;20027;-36
2021/08/02 04:06:37;;;;;;;9.48;3.90;;;;;;;13.89;90.64;101375.31;5116607;28;20058;-36
2021/08/02 04:09:05;;;;;;;8.23;4.07;;;;;;;13.89;90.56;101365.25;5116293;28;20055;-35
2021/08/02 04:11:31;;;;;;;5.25;4.10;;;;;;;13.92;90.76;101369.41;5116443;28;20020;-36
2021/08/02 04:13:56;;;;;;;8.13;3.75;;;;;;;13.88;90.15;101366.31;5116022;28;20163;-36
2021/08/02 04:16:22;;;;;;;8.90;4.20;;;;;;;13.90;90.25;101377.75;5116441;28;20328;-36
2021/08/02 04:18:48;;;;;;;7.13;3.55;;;;;;;13.95;91.21;101379.75;5116067;28;20452;-36
2021/08/02 04:21:13;;;;;;;8.13;4.10;;;;;;;13.93;90.21;101371.03;5115829;28;20143;-36
2021/08/02 04:23:38;;;;;;;7.83;3.53;;;;;;;13.93;90.63;101383.81;5116239;28;20074;-36
2021/08/02 04:26:05;;;;;;;7.80;3.58;;;;;;;13.94;90.56;101383.56;5116168;28;20055;-35
2021/08/02 04:28:30;;;;;;;7.55;3.88;;;;;;;13.91;90.69;101393.03;5115750;28;20110;-36
2021/08/02 04:30:55;;;;;;;7.27;4.00;;;;;;;13.93;90.81;101381.91;5115854;28;20451;-36
2021/08/02 04:33:21;;;;;;;9.02;3.80;;;;;;;13.99;89.77;101386.38;5116370;28;20019;-36
2021/08/02 04:35:46;;;;;;;6.78;3.55;;;;;;;13.97;90.38;101385.00;5115542;28;20475;-36
2021/08/02 04:38:12;;;;;;;9.57;4.50;;;;;;;13.99;90.17;101385.56;5115905;28;20387;-36
2021/08/02 04:40:37;;;;;;;7.55;4.10;;;;;;;14.02;90.49;101388.63;5116178;28;20435;-35
2021/08/02 04:43:03;;;;;;;5.82;3.63;;;;;;;14.03;90.29;101387.56;5115601;28;20032;-36
2021/08/02 04:45:28;;;;;;;9.20;4.15;;;;;;;14.01;90.21;101388.88;5116298;28;20325;-35
2021/08/02 04:47:54;;;;;;;9.93;4.70;;;;;;;14.06;89.80;101389.00;5115438;28;20364;-35
2021/08/02 04:50:19;;;;;;;9.02;4.22;;;;;;;14.08;90.04;101387.66;5115973;28;20031;-35
2021/08/02 04:52:47;;;;;;;8.23;4.80;;;;;;;14.04;90.50;101383.75;5115340;28;20019;-36
2021/08/02 04:55:12;;;;;;;8.20;4.25;;;;;;;14.08;90.01;101387.66;5115928;28;20102;-36
2021/08/02 04:57:37;;;;;;;7.60;4.67;;;;;;;14.07;90.12;101377.84;5115307;27;20074;-36
2021/08/02 05:00:05;;;;;;;9.37;4.40;;;;;;;14.12;89.54;101388.84;5115846;28;20027;-35
2021/08/02 05:02:30;;;;;;;7.80;4.53;;;;;;;14.11;89.65;101380.94;5114942;28;20269;-35
2021/08/02 05:04:56;;;;;;;9.20;4.37;;;;;;;14.24;89.69;101401.56;5115544;28;20020;-35
2021/08/02 05:07:21;;;;;;;6.32;4.05;;;;;;;14.20;89.25;101398.53;5115037;28;20016;-35
2021/08/02 05:09:47;;;;;;;6.38;3.50;;;;;;;14.31;89.39;101399.53;5114979;28;20026;-35
2021/08/02 05:12:12;;;;;;;10.60;4.03;;;;;;;14.22;89.53;101390.94;5114951;28;20015;-35
2021/08/02 05:14:38;;;;;;;10.70;4.60;;;;;;;14.24;89.14;101382.53;5114822;28;20102;-36
2021/08/02 05:17:03;;;;;;;7.73;3.87;;;;;;;14.33;89.41;101411.81;5115017;28;20344;-35
2021/08/02 05:19:28;;;;;;;7.85;4.45;;;;;;;14.35;89.50;101398.81;5114525;28;20285;-36
2021/08/02 05:21:54;;;;;;;6.80;4.13;;;;;;;14.28;89.40;101397.28;5115364;28;20027;-36
2021/08/02 05:24:19;;;;;;;7.60;4.43;;;;;;;14.36;89.69;101396.91;5114845;28;20409;-36
2021/08/02 05:26:44;;;;;;;7.93;4.45;;;;;;;14.30;89.44;101387.84;5114544;28;20041;-35
2021/08/02 05:29:10;;;;;;;8.23;4.50;;;;;;;14.43;89.71;101403.03;5113637;28;20024;-36
2021/08/02 05:31:35;;;;;;;8.77;4.72;;;;;;;14.38;89.61;101403.75;5114695;28;20463;-35
2021/08/02 05:34:00;;;;;;;5.13;4.27;;;;;;;14.48;89.16;101395.00;5114373;28;20030;-35
2021/08/02 05:36:26;;;;;;;7.15;4.18;;;;;;;14.53;88.46;101396.97;5114400;28;20028;-35
2021/08/02 05:38:51;;;;;;;9.35;4.32;;;;;;;14.49;87.69;101387.66;5114581;28;20085;-35
2021/08/02 05:41:16;;;;;;;8.30;4.20;;;;;;;14.48;87.47;101395.00;5112957;28;20036;-36
2021/08/02 05:43:42;;;;;;;8.53;4.13;;;;;;;14.62;88.08;101403.69;5115012;28;20276;-36
2021/08/02 05:46:07;;;;;;;7.43;4.20;;;;;;;14.58;87.85;101405.25;5113268;28;20729;-35
2021/08/02 05:48:33;;;;;;;7.70;3.92;;;;;;;14.67;88.37;101420.13;5114287;28;20111;-35
2021/08/02 05:50:58;;;;;;;7.50;4.13;;;;;;;14.65;88.33;101404.03;5114982;28;20049;-35
2021/08/02 05:53:24;;;;;;;7.65;3.97;;;;;;;14.71;87.44;101410.41;5114045;28;20016;-35
2021/08/02 05:55:49;;;;;;;7.40;3.73;;;;;;;14.81;87.45;101415.19;5113888;28;20058;-36
2021/08/02 05:58:14;;;;;;;7.77;3.53;;;;;;;14.86;87.15;101418.00;5113781;28;20733;-35
2021/08/02 06:00:40;;;;;;;5.35;4.00;;;;;;;14.82;86.66;101414.13;5114329;28;20395;-35
2021/08/02 06:03:06;;;;;;;4.75;3.58;;;;;;;14.93;87.27;101413.22;5113875;28;20015;-35
2021/08/02 06:05:32;;;;;;;;;;;;;;;15.01;87.11;101417.44;5114038;28;20026;-36
2021/08/02 06:07:57;;;;;;;8.57;3.65;;;;;;;14.97;86.25;101417.09;5113794;28;19908;-35
2021/08/02 06:10:23;;;;;;;6.65;3.40;;;;;;;15.11;85.78;101423.06;5113466;28;20042;-36
2021/08/02 06:12:48;;;;;;;5.25;3.58;;;;;;;15.31;85.69;101425.28;5113555;28;20094;-36
2021/08/02 06:15:15;;;;;;;6.93;3.97;;;;;;;15.32;85.17;101418.75;5113736;27;20448;-36
2021/08/02 06:17:41;;;;;;;6.10;3.50;;;;;;;15.36;85.07;101422.63;5113763;28;20269;-36
2021/08/02 06:20:06;;;;;;;9.13;3.55;;;;;;;15.36;84.67;101428.91;5114727;28;20124;-36
2021/08/02 06:22:32;;;;;;;5.20;3.20;;;;;;;15.39;84.68;101427.59;5113534;28;20015;-35
2021/08/02 06:24:57;;;;;;;5.63;3.47;;;;;;;15.40;83.81;101419.19;5113039;28;20043;-36
2021/08/02 06:27:23;;;;;;;4.50;3.23;;;;;;;15.33;83.90;101412.25;5114262;28;20050;-36
2021/08/02 06:29:48;;;;;;;5.93;3.50;;;;;;;15.46;83.20;101429.06;5113197;28;20299;-35
2021/08/02 06:32:13;;;;;;;6.38;3.03;;;;;;;15.50;83.94;101425.84;5113749;28;20024;-35
2021/08/02 06:34:39;;;;;;;6.15;3.22;;;;;;;15.47;84.62;101424.47;5113382;28;20442;-36
2021/08/02 06:37:04;;;;;;;5.57;3.00;;;;;;;15.54;84.54;101422.38;5113448;28;20024;-36
2021/08/02 06:39:29;;;;;;;5.97;3.13;;;;;;;15.58;81.91;101429.00;5113486;28;20118;-35
2021/08/02 06:41:55;;;;;;;5.47;3.25;;;;;;;15.61;81.50;101427.66;5114364;28;20027;-35
2021/08/02 06:44:20;;;;;;;5.50;3.17;;;;;;;15.48;81.78;101426.13;5116790;28;20047;-35
2021/08/02 06:46:46;;;;;;;7.25;3.25;;;;;;;15.53;81.18;101433.53;5117581;28;20474;-36
2021/08/02 06:49:12;;;;;;;7.47;2.60;;;;;;;15.51;81.18;101430.22;5117338;28;20023;-36
2021/08/02 06:51:37;;;;;;;5.22;2.60;;;;;;;15.51;80.63;101430.22;5118166;28;20068;-36
2021/08/02 06:54:02;;;;;;;6.15;2.80;;;;;;;15.58;81.38;101433.63;5117240;28;20027;-36
2021/08/02 06:56:28;;;;;;;3.47;2.03;;;;;;;15.43;80.86;101393.34;5117820;28;20528;-36
2021/08/02 06:58:53;;;;;;;5.15;2.92;;;;;;;15.68;79.87;101428.34;5117517;28;20718;-36
2021/08/02 07:01:19;;;;;;;5.00;2.63;;;;;;;15.84;80.28;101434.84;5117180;28;20164;-35
2021/08/02 07:03:44;;;;;;;5.90;2.78;;;;;;;15.91;79.61;101440.94;5117726;28;20023;-36
2021/08/02 07:06:09;;;;;;;;;;;;;;;16.09;81.54;101435.16;5118079;28;20466;-36
2021/08/02 07:08:38;;;;;;;5.00;2.22;;;;;;;16.01;78.28;101446.53;5117568;28;19903;-36
2021/08/02 07:11:05;;;;;;;5.63;2.38;;;;;;;16.05;77.69;101435.94;5117592;28;20016;-36
2021/08/02 07:13:30;;;;;;;3.60;2.22;;;;;;;16.02;77.71;101420.91;5117990;28;20088;-36
2021/08/02 07:15:56;;;;;;;5.35;2.08;;;;;;;15.99;78.58;101415.13;5117156;28;20518;-35
2021/08/02 07:18:23;;;;;;;6.30;2.03;;;;;;;16.19;77.95;101438.03;5116947;28;20036;-35
2021/08/02 07:20:51;;;;;;;4.88;2.25;;;;;;;16.27;76.70;101433.22;5117589;28;20471;-35
2021/08/02 07:23:16;;;;;;;5.20;1.80;;;;;;;16.40;75.85;101441.03;5117181;28;20028;-35
2021/08/02 07:25:42;;;;;;;4.72;1.80;;;;;;;16.51;76.50;101440.03;5116814;28;20474;-35
2021/08/02 07:28:08;;;;;;;5.00;1.65;;;;;;;16.47;74.83;101447.09;5117342;28;20110;-35
2021/08/02 07:30:33;;;;;;;5.68;1.58;;;;;;;16.51;74.65;101440.03;5116768;28;20047;-35
2021/08/02 07:32:59;;;;;;;6.30;1.30;;;;;;;16.60;73.94;101443.97;5116620;28;20055;-35
2021/08/02 07:35:24;;;;;;;3.50;1.40;;;;;;;16.58;74.78;101439.84;5117755;28;20310;-36
2021/08/02 07:37:49;;;;;;;3.47;0.90;;;;;;;16.61;72.13;101444.78;5117633;28;20282;-35
2021/08/02 07:40:15;;;;;;;;;;;;;;;16.61;74.85;101448.34;5117281;28;20028;-35
2021/08/02 07:42:40;;;;;;;6.13;1.10;;;;;;;16.26;74.78;101432.38;5116518;28;19910;-35
2021/08/02 07:45:06;;;;;;;4.22;1.42;;;;;;;16.34;74.64;101447.47;5117359;28;20027;-35
2021/08/02 07:47:32;;;;;;;;;;;;;;;16.53;75.24;101442.50;5117051;28;20508;-36
2021/08/02 07:49:57;;;;;;;5.03;1.48;;;;;;;16.40;70.34;101441.03;5116562;28;19907;-36
2021/08/02 07:52:23;;;;;;;;;;;;;;;16.70;74.35;101438.63;5117557;28;20026;-36
2021/08/02 07:54:49;;;;;;;3.33;0.95;;;;;;;16.76;71.23;101444.97;5115010;28;19908;-36
2021/08/02 07:57:14;;;;;;;4.50;1.43;;;;;;;16.89;70.56;101438.28;5116386;28;20119;-35
2021/08/02 07:59:39;;;;;;;4.10;1.23;;;;;;;17.00;70.41;101434.56;5116891;28;20301;-35
2021/08/02 08:02:05;;;;;;;;;;;;;;;17.30;73.49;101436.72;5116676;28;20049;-36
2021/08/02 08:04:30;;;;;;;4.22;1.00;;;;;;;17.41;68.45;101445.81;5116364;28;19964;-36
2021/08/02 08:06:55;;;;;;;;;;;;;;;17.60;71.97;101443.50;5117534;28;20035;-35
2021/08/02 08:09:21;;;;;;;3.10;0.70;;;;;;;17.31;69.56;101437.53;5116020;28;19976;-35
2021/08/02 08:11:46;;;;;;;5.88;1.17;;;;;;;17.23;68.55;101439.69;5116253;28;20257;-35
2021/08/02 08:14:11;;;;;;;3.97;1.43;;;;;;;17.16;71.28;101447.25;5116006;28;20098;-36
2021/08/02 08:16:38;;;;;;;5.07;1.30;;;;;;;17.10;71.40;101431.91;5116406;28;20257;-36
2021/08/02 08:19:03;;;;;;;2.45;0.95;;;;;;;16.98;66.89;101444.91;5116171;28;20509;-36
2021/08/02 08:21:29;;;;;;;3.35;1.08;;;;;;;16.98;68.82;101445.75;5114989;28;20077;-36
2021/08/02 08:23:55;;;;;;;;;;;;;;;17.16;71.27;101446.44;5116397;28;20360;-36
2021/08/02 08:26:20;;;;;;;2.88;0.88;;;;;;;17.04;69.70;101443.06;5116026;28;19998;-36
2021/08/02 08:28:46;;;;;;;5.53;1.20;;;;;;;17.15;70.04;101448.34;5116431;28;20430;-35
2021/08/02 08:31:12;;;;;;;;;;;;;;;17.46;72.13;101448.59;5116602;28;20408;-36
2021/08/02 08:33:37;;;;;;;3.83;1.13;;;;;;;17.56;67.34;101429.53;5115735;28;19908;-36
2021/08/02 08:36:02;;;;;;;;;;;;;;;17.86;71.26;101445.34;5116738;28;20012;-35
2021/08/02 08:38:28;;;;;;;4.00;0.95;;;;;;;17.90;67.15;101430.03;5115652;28;19911;-35
2021/08/02 08:40:54;;;;;;;;;;;;;;;18.18;70.28;101447.97;5116714;28;20047;-35
2021/08/02 08:43:20;;;;;;;3.08;0.90;;;;;;;18.16;64.10;101443.84;5115289;28;19903;-36
2021/08/02 08:45:46;;;;;;;3.50;1.00;;;;;;;18.27;64.97;101435.41;5115979;28;20059;-35
2021/08/02 08:48:12;;;;;;;3.20;1.10;;;;;;;18.14;60.63;101443.28;5115096;28;20095;-35
2021/08/02 08:50:38;;;;;;;;;;;;;;;18.38;65.95;101436.25;5116105;28;20111;-35
2021/08/02 08:53:04;;;;;;;2.60;1.20;;;;;;;18.35;62.82;101425.88;5115541;28;19963;-35
2021/08/02 08:55:30;;;;;;;4.72;1.13;;;;;;;18.48;63.31;101413.56;5115888;28;20118;-35
2021/08/02 08:57:56;;;;;;;;;;;;;;;18.87;65.63;101435.84;5116269;28;20427;-35
2021/08/02 09:00:26;;;;;;;5.28;1.67;;;;;;;18.51;63.28;101434.94;5115598;28;19904;-35
2021/08/02 09:02:55;;;;;;;3.20;1.00;;;;;;;18.31;62.27;101441.19;5115064;28;20016;-35
2021/08/02 09:05:21;;;;;;;5.05;1.00;;;;;;;18.28;62.28;101444.44;5115238;28;20024;-35
2021/08/02 09:07:46;;;;;;;;;;;;;;;18.45;66.17;101444.25;5115024;28;20024;-35
2021/08/02 09:10:18;;;;;;;4.13;1.20;;;;;;;18.38;60.20;101444.47;5115905;28;19911;-36
2021/08/02 09:12:55;;;;;;;4.88;0.80;;;;;;;18.78;62.20;101445.69;5113676;28;20130;-36
2021/08/02 09:15:29;;;;;;;4.32;1.00;;;;;;;19.11;61.38;101444.38;5115310;28;20098;-36
2021/08/02 09:17:55;;;;;;;2.60;1.05;;;;;;;19.16;59.64;101441.63;5115127;28;20055;-36
2021/08/02 09:20:22;;;;;;;;;;;;;;;19.35;63.78;101444.66;5116527;28;20074;-34
2021/08/02 09:22:48;;;;;;;4.35;1.10;;;;;;;18.91;60.17;101445.19;5115329;28;19999;-35
2021/08/02 09:25:16;;;;;;;3.30;1.25;;;;;;;18.70;59.35;101449.81;5115138;28;20020;-35
2021/08/02 09:27:43;;;;;;;2.00;0.90;;;;;;;18.50;58.84;101445.06;5114716;28;20023;-36
2021/08/02 09:30:15;;;;;;;4.53;1.15;;;;;;;18.37;60.22;101447.50;5115383;28;20024;-35
2021/08/02 09:32:50;;;;;;;3.42;0.98;;;;;;;18.69;61.12;101448.16;5114376;28;20012;-35
2021/08/02 09:35:29;;;;;;;3.80;0.90;;;;;;;18.60;59.85;101441.53;5115299;28;20114;-36
2021/08/02 09:38:12;;;;;;;3.42;1.00;;;;;;;18.89;60.92;101439.16;5115097;28;20527;-35
2021/08/02 09:40:45;;;;;;;4.18;1.35;;;;;;;19.00;60.98;101445.47;5114206;28;20020;-36
2021/08/02 09:43:31;;;;;;;2.72;0.70;;;;;;;19.12;60.78;101443.28;5114148;28;20074;-36
2021/08/02 09:46:00;;;;;;;3.17;0.90;;;;;;;18.99;58.77;101435.59;5114688;28;20023;-36
2021/08/02 09:48:38;;;;;;;5.18;1.17;;;;;;;19.11;61.05;101443.56;5114340;27;20015;-36
2021/08/02 09:51:12;;;;;;;5.15;0.90;;;;;;;19.17;58.63;101434.22;5115052;28;20351;-35
2021/08/02 09:53:44;;;;;;;6.30;1.15;;;;;;;19.38;58.83;101443.28;5113972;28;20035;-36
2021/08/02 09:56:15;;;;;;;5.63;1.00;;;;;;;19.60;57.50;101452.06;5114016;28;20027;-36
2021/08/02 09:58:42;;;;;;;4.75;1.05;;;;;;;19.66;54.89;101445.44;5113262;28;20032;-36
2021/08/02 10:01:08;;;;;;;2.38;0.80;;;;;;;19.72;56.63;101449.03;5114912;28;20024;-36
2021/08/02 10:03:34;;;;;;;3.85;1.10;;;;;;;19.35;54.30;101411.75;5114523;28;20102;-36
2021/08/02 10:06:01;;;;;;;5.63;1.15;;;;;;;19.42;56.07;101442.47;5114517;28;20106;-36
2021/08/02 10:08:28;;;;;;;3.50;0.90;;;;;;;19.46;56.28;101437.22;5114011;28;20020;-36
2021/08/02 10:10:53;;;;;;;2.13;0.85;;;;;;;19.42;56.63;101425.16;5114526;27;20463;-35
2021/08/02 10:13:22;;;;;;;;;;;;;;;19.69;58.86;101433.13;5113999;28;20031;-35
2021/08/02 10:15:53;;;;;;;2.35;0.93;;;;;;;19.39;58.71;101420.25;5113982;28;19908;-35
2021/08/02 10:18:22;;;;;;;5.32;1.48;;;;;;;19.48;57.75;101440.53;5113042;28;20064;-35
2021/08/02 10:20:48;;;;;;;3.42;0.90;;;;;;;19.52;59.18;101426.00;5114433;28;20027;-35
2021/08/02 10:23:23;;;;;;;3.50;1.42;;;;;;;19.76;57.61;101436.38;5112126;28;20153;-35
2021/08/02 10:25:48;;;;;;;2.80;1.10;;;;;;;19.86;54.29;101413.56;5114143;28;20027;-36
2021/08/02 10:28:17;;;;;;;;;;;;;;;20.23;59.04;101433.22;5114178;28;20020;-36
2021/08/02 10:30:46;;;;;;;3.25;1.00;;;;;;;20.16;54.33;101431.88;5114232;28;19911;-35
2021/08/02 10:33:12;;;;;;;2.10;0.88;;;;;;;20.18;53.90;101430.47;5113924;28;20035;-35
2021/08/02 10:35:39;;;;;;;;;;;;;;;20.58;57.62;101425.91;5114692;28;20020;-35
2021/08/02 10:38:13;;;;;;;3.75;1.20;;;;;;;20.35;53.03;101441.13;5113570;28;19904;-35
2021/08/02 10:40:51;;;;;;;4.35;1.02;;;;;;;20.22;54.90;101436.25;5113798;28;20027;-35
2021/08/02 10:43:49;;;;;;;4.32;1.08;;;;;;;20.02;54.14;101439.91;5113367;28;20019;-35
2021/08/02 10:46:22;;;;;;;3.38;0.85;;;;;;;19.65;54.42;101424.63;5030928;28;20029;-35
2021/08/02 10:48:50;;;;;;;3.70;1.02;;;;;;;19.48;55.12;101426.81;5031369;28;20081;-35
2021/08/02 10:51:18;;;;;;;3.28;0.90;;;;;;;19.30;56.24;101431.75;5030902;28;20029;-36
2021/08/02 10:53:55;;;;;;;4.00;0.85;;;;;;;19.31;56.46;101438.06;5030489;28;20025;-35
2021/08/02 10:56:25;;;;;;;3.63;1.15;;;;;;;19.10;57.28;101448.22;5030702;28;20132;-35
2021/08/02 10:58:51;;;;;;;4.05;1.08;;;;;;;18.89;56.97;101441.91;5030526;28;20029;-35
2021/08/02 11:01:17;;;;;;;;;;;;;;;18.94;58.80;101449.31;5031465;28;20143;-35
2021/08/02 11:03:43;;;;;;;3.80;1.27;;;;;;;18.44;60.94;101451.59;5031045;28;19909;-35
2021/08/02 11:06:08;;;;;;;;;;;;;;;18.42;60.96;101463.94;5031128;28;20036;-35
2021/08/02 11:08:54;;;;;;;5.45;1.42;;;;;;;18.19;62.66;101466.03;5030558;28;19905;-35
2021/08/02 11:11:29;;;;;;;5.15;1.17;;;;;;;18.05;63.19;101473.06;5030568;28;20158;-35
2021/08/02 11:14:12;;;;;;;6.22;1.70;;;;;;;17.96;63.88;101458.25;5030359;28;20032;-35
2021/08/02 11:16:43;;;;;;;5.70;1.20;;;;;;;17.91;62.91;101469.16;5030694;28;20037;-35
2021/08/02 11:19:18;;;;;;;5.57;1.40;;;;;;;17.99;63.33;101472.22;5030360;28;20509;-36
2021/08/02 11:21:45;;;;;;;7.57;1.40;;;;;;;18.13;63.06;101471.75;5069577;28;20073;-36
2021/08/02 11:24:12;;;;;;;4.72;1.60;;;;;;;18.16;64.30;101472.03;5113420;28;20027;-36
2021/08/02 11:26:53;;;;;;;4.40;1.40;;;;;;;18.30;63.48;101458.69;5113184;28;20028;-35
2021/08/02 11:29:20;;;;;;;5.50;2.22;;;;;;;18.24;61.59;101473.44;5114916;28;20023;-35
2021/08/02 11:31:54;;;;;;;4.18;1.38;;;;;;;18.26;62.99;101458.41;5117088;28;20024;-35
2021/08/02 11:34:21;;;;;;;5.45;1.40;;;;;;;18.42;62.72;101472.97;5116829;27;20027;-35